createdAt,value
2022-08-01T05:58:28.741Z,4.93
2022-08-01T06:01:24.690Z,5.17
2022-08-01T06:04:14.653Z,3.93
2022-08-01T06:07:09.895Z,3.72
2022-08-01T06:09:58.142Z,4.00
2022-08-01T06:12:46.857Z,3.23
2022-08-01T06:15:40.985Z,3.70
2022-08-01T06:18:44.263Z,3.27
2022-08-01T06:21:32.416Z,2.50
2022-08-01T06:24:21.109Z,2.90
2022-08-01T06:27:22.174Z,3.33
2022-08-01T06:30:12.779Z,2.80
2022-08-01T06:33:03.610Z,2.73
2022-08-01T06:35:51.115Z,2.37
2022-08-01T06:38:40.695Z,2.57
2022-08-01T06:41:28.401Z,2.00
2022-08-01T06:44:19.266Z,3.70
2022-08-01T06:47:06.852Z,2.50
2022-08-01T06:49:54.651Z,2.50
2022-08-01T06:52:42.851Z,3.07
2022-08-01T06:55:31.492Z,2.20
2022-08-01T06:58:19.033Z,2.27
2022-08-01T07:01:08.729Z,2.87
2022-08-01T07:03:56.665Z,2.20
2022-08-01T07:06:44.908Z,2.53
2022-08-01T07:09:32.566Z,2.13
2022-08-01T07:12:23.736Z,2.63
2022-08-01T07:15:15.076Z,2.40
2022-08-01T07:18:05.812Z,2.43
2022-08-01T07:20:53.596Z,2.70
2022-08-01T07:23:45.870Z,2.80
2022-08-01T07:26:34.883Z,2.10
2022-08-01T07:29:24.172Z,2.10
2022-08-01T07:32:13.210Z,2.50
2022-08-01T07:35:01.209Z,2.47
2022-08-01T07:37:49.504Z,2.37
2022-08-01T07:40:37.675Z,2.40
2022-08-01T07:43:25.729Z,2.33
2022-08-01T07:46:13.406Z,2.30
2022-08-01T07:49:01.427Z,2.70
2022-08-01T07:52:02.480Z,2.10
2022-08-01T07:54:52.437Z,2.53
2022-08-01T07:57:41.038Z,2.37
2022-08-01T08:00:29.789Z,2.77
2022-08-01T08:03:22.451Z,2.30
2022-08-01T08:06:15.651Z,2.57
2022-08-01T08:09:03.376Z,2.37
2022-08-01T08:11:51.517Z,2.27
2022-08-01T08:14:42.526Z,2.70
2022-08-01T08:17:35.553Z,3.10
2022-08-01T08:20:26.162Z,2.20
2022-08-01T08:23:42.495Z,2.17
2022-08-01T08:26:31.259Z,2.40
2022-08-01T08:29:24.900Z,2.17
2022-08-01T08:32:20.408Z,2.33
2022-08-01T08:35:12.098Z,2.37
2022-08-01T08:38:08.231Z,1.77
2022-08-01T08:41:05.184Z,2.63
2022-08-01T08:44:01.493Z,1.98
2022-08-01T08:46:53.156Z,2.45
2022-08-01T08:49:49.313Z,2.10
2022-08-01T08:52:40.733Z,2.50
2022-08-01T08:55:29.674Z,2.67
2022-08-01T14:26:19.520Z,0.82
2022-08-01T14:29:07.779Z,1.35
2022-08-01T14:32:00.898Z,1.15
2022-08-01T14:34:51.523Z,1.00
2022-08-01T14:37:42.012Z,1.08
2022-08-01T14:40:33.489Z,1.75
2022-08-01T14:43:28.220Z,1.23
2022-08-01T14:46:24.859Z,1.20
2022-08-01T14:49:12.454Z,1.20
2022-08-01T14:52:00.456Z,1.23
2022-08-01T14:54:48.939Z,1.65
2022-08-01T14:57:40.100Z,1.23
2022-08-01T15:00:27.675Z,1.30
2022-08-01T15:03:15.348Z,1.20
2022-08-01T15:06:03.490Z,0.98
2022-08-01T15:08:51.227Z,1.40
2022-08-01T15:11:41.450Z,1.00
2022-08-01T15:14:48.031Z,0.90
2022-08-01T15:17:35.897Z,1.17
2022-08-01T15:20:23.859Z,1.10
2022-08-01T15:23:13.877Z,1.35
2022-08-01T15:26:04.322Z,1.20
2022-08-01T15:28:55.099Z,0.98
2022-08-01T15:31:45.590Z,1.00
2022-08-01T15:34:36.228Z,1.02
2022-08-01T15:37:27.280Z,0.82
2022-08-01T15:40:18.110Z,1.20
2022-08-01T15:43:09.286Z,0.93
2022-08-01T15:46:06.052Z,1.30
2022-08-01T15:48:56.685Z,0.98
2022-08-01T15:51:44.827Z,1.40
2022-08-01T15:54:37.096Z,1.63
2022-08-01T15:57:40.461Z,1.40
2022-08-01T16:00:39.562Z,1.90
2022-08-01T16:03:28.942Z,1.35
2022-08-01T16:06:16.698Z,1.35
2022-08-01T16:09:05.842Z,1.45
2022-08-01T16:11:53.473Z,1.75
2022-08-01T16:14:41.351Z,1.92
2022-08-01T16:17:30.737Z,2.22
2022-08-01T16:20:18.591Z,1.35
2022-08-01T16:23:12.762Z,1.60
2022-08-01T16:26:00.600Z,1.70
2022-08-01T16:28:53.052Z,1.15
2022-08-01T16:31:59.682Z,1.17
2022-08-01T16:34:51.523Z,1.85
2022-08-01T16:37:43.287Z,2.03
2022-08-01T16:40:31.060Z,1.73
2022-08-01T16:43:26.267Z,1.92
2022-08-01T16:46:19.890Z,1.75
2022-08-01T16:49:08.039Z,1.83
2022-08-01T16:51:56.567Z,1.67
2022-08-01T16:54:44.571Z,1.27
2022-08-01T16:57:37.157Z,2.03
2022-08-01T17:00:28.112Z,2.05
2022-08-01T17:03:17.386Z,1.60
2022-08-01T17:06:06.521Z,1.63
2022-08-01T17:08:59.432Z,1.67
2022-08-01T17:11:47.423Z,1.35
2022-08-01T17:14:35.227Z,1.80
2022-08-01T17:17:23.472Z,1.85
2022-08-01T17:20:17.633Z,2.10
2022-08-01T17:23:05.479Z,1.20
2022-08-01T17:26:01.195Z,1.30
2022-08-01T17:28:49.385Z,1.58
2022-08-01T17:31:36.805Z,1.70
2022-08-01T17:34:27.373Z,1.30
2022-08-01T17:37:14.812Z,1.50
2022-08-01T17:40:06.356Z,1.50
2022-08-01T17:43:10.654Z,1.70
2022-08-01T17:46:04.299Z,2.50
2022-08-01T17:48:54.275Z,1.73
2022-08-01T17:51:41.843Z,1.30
2022-08-01T17:54:29.199Z,1.42
2022-08-01T17:57:16.879Z,1.50
2022-08-01T18:00:09.745Z,1.20
2022-08-01T18:02:57.269Z,1.25
2022-08-01T18:05:44.724Z,1.25
2022-08-01T18:08:32.619Z,1.17
2022-08-01T18:11:23.068Z,1.33
2022-08-01T18:14:13.657Z,1.23
2022-08-01T18:24:40.708Z,1.60
2022-08-01T18:28:29.938Z,1.23
2022-08-01T18:30:36.544Z,1.37
2022-08-01T18:33:24.146Z,1.10
2022-08-01T18:36:25.515Z,1.20
2022-08-01T18:39:20.248Z,1.30
2022-08-01T18:42:07.745Z,2.17
2022-08-01T18:44:55.153Z,1.70
2022-08-01T18:47:42.851Z,1.03
2022-08-01T18:50:30.564Z,1.53
2022-08-01T18:53:18.923Z,1.17
2022-08-01T19:02:13.154Z,1.87
2022-08-01T19:05:00.512Z,1.30
2022-08-01T19:08:05.198Z,1.73
2022-08-01T19:10:55.252Z,1.00
2022-08-01T19:13:42.539Z,1.73
2022-08-01T19:16:30.495Z,1.67
2022-08-01T19:19:24.762Z,1.17
2022-08-01T19:22:16.681Z,1.33
2022-08-01T19:25:04.492Z,1.03
2022-08-01T19:27:52.453Z,1.13
2022-08-01T19:30:40.270Z,1.23
2022-08-01T19:33:32.141Z,1.40
2022-08-01T19:36:20.733Z,1.20
2022-08-01T19:39:10.379Z,1.27
2022-08-01T19:41:59.503Z,1.40
2022-08-01T19:44:47.747Z,1.00
2022-08-01T19:47:51.652Z,1.10
2022-08-01T19:50:46.459Z,2.37
2022-08-01T19:53:39.301Z,1.43
2022-08-01T19:56:28.142Z,1.67
2022-08-01T19:59:23.616Z,0.80
2022-08-01T20:05:03.134Z,1.63
2022-08-01T20:07:51.291Z,1.20
2022-08-01T20:10:40.338Z,1.00
2022-08-01T20:13:36.992Z,1.33
2022-08-01T20:16:29.264Z,1.00
2022-08-01T20:19:18.859Z,0.87
2022-08-01T20:22:07.961Z,1.50
2022-08-01T20:24:59.029Z,1.10
2022-08-01T20:27:47.448Z,0.90
2022-08-01T20:30:34.788Z,0.97
2022-08-01T20:33:22.486Z,1.67
2022-08-01T20:36:12.336Z,1.40
2022-08-01T20:39:15.226Z,1.40
2022-08-01T20:42:04.313Z,1.17
2022-08-01T20:44:53.156Z,1.20
2022-08-01T20:47:41.366Z,1.50
2022-08-01T20:50:53.916Z,1.37
2022-08-01T20:53:45.652Z,1.47
2022-08-01T20:56:38.928Z,1.20
2022-08-01T20:59:57.334Z,1.40
2022-08-01T21:03:04.642Z,1.23
2022-08-01T21:06:04.458Z,1.10
2022-08-01T21:08:55.854Z,1.50
2022-08-01T21:11:51.682Z,1.57
2022-08-01T21:15:11.537Z,1.33
2022-08-01T21:18:15.137Z,1.20
2022-08-01T21:21:04.294Z,1.40
2022-08-01T21:24:03.625Z,1.97
2022-08-01T21:26:53.341Z,1.60
2022-08-01T21:29:41.673Z,1.80
2022-08-01T21:32:30.954Z,1.77
2022-08-01T21:35:22.965Z,1.97
2022-08-01T21:38:11.056Z,1.80
2022-08-01T21:41:56.017Z,1.40
2022-08-01T21:44:30.088Z,1.50
2022-08-01T21:47:18.506Z,1.97
2022-08-01T21:50:06.872Z,2.73
2022-08-01T21:53:32.304Z,2.03
2022-08-01T21:56:37.818Z,2.27
2022-08-01T21:59:48.505Z,2.40
2022-08-01T22:03:15.508Z,1.83
2022-08-01T22:06:04.361Z,1.70
2022-08-01T22:08:53.730Z,2.17
2022-08-01T22:12:00.942Z,1.60
2022-08-01T22:14:52.503Z,1.53
2022-08-01T22:17:41.401Z,1.70
2022-08-01T22:20:29.082Z,1.67
2022-08-01T22:23:17.781Z,1.23
2022-08-01T22:26:09.819Z,1.03
2022-08-01T22:28:58.710Z,1.40
2022-08-01T22:31:48.082Z,1.80
2022-08-01T22:34:35.470Z,1.30
2022-08-01T22:37:56.393Z,1.47
2022-08-01T22:52:54.017Z,1.00
2022-08-01T22:55:57.837Z,1.47
2022-08-01T22:58:48.802Z,1.27
2022-08-01T23:02:03.920Z,1.10
2022-08-01T23:05:01.300Z,1.30
2022-08-01T23:07:54.277Z,1.17
2022-08-01T23:10:43.763Z,1.00
2022-08-01T23:13:32.595Z,1.40
2022-08-01T23:16:21.843Z,1.10
2022-08-01T23:26:06.170Z,1.27
2022-08-01T23:29:08.669Z,0.90
2022-08-01T23:32:03.531Z,1.30
2022-08-01T23:35:01.440Z,1.20
2022-08-01T23:37:51.899Z,1.13
2022-08-01T23:40:42.200Z,1.20
2022-08-01T23:43:42.009Z,1.00
2022-08-01T23:46:40.212Z,1.00
2022-08-01T23:49:28.228Z,1.30
2022-08-01T23:52:20.546Z,1.43
2022-08-01T23:55:18.571Z,1.53
2022-08-01T23:58:27.392Z,1.63
